sensor_id;sensor_type;location;lat;lon;timestamp;pressure;altitude;pressure_sealevel;temperature;humidity
47710;BME280;33473;51.640;5.892;2022-09-17T00:06:47;101100;;;16.2;53.0
47710;BME280;33473;51.640;5.892;2022-09-17T00:20:06;101100;;;16.2;53.0
47710;BME280;33473;51.640;5.892;2022-09-17T00:33:26;101200;;;16.2;53.0
47710;BME280;33473;51.640;5.892;2022-09-17T00:46:46;101200;;;16.0;53.0
47710;BME280;33473;51.640;5.892;2022-09-17T01:00:06;101200;;;16.2;54.0
47710;BME280;33473;51.640;5.892;2022-09-17T01:13:26;101200;;;16.2;54.0
47710;BME280;33473;51.640;5.892;2022-09-17T01:26:46;101200;;;16.3;54.0
47710;BME280;33473;51.640;5.892;2022-09-17T01:40:05;101200;;;16.4;53.0
47710;BME280;33473;51.640;5.892;2022-09-17T01:53:25;101200;;;16.3;54.0
47710;BME280;33473;51.640;5.892;2022-09-17T02:06:45;101200;;;16.2;53.0
47710;BME280;33473;51.640;5.892;2022-09-17T02:20:05;101200;;;16.2;53.0
47710;BME280;33473;51.640;5.892;2022-09-17T02:33:25;101200;;;16.0;53.0
47710;BME280;33473;51.640;5.892;2022-09-17T02:46:44;101200;;;16.0;53.0
47710;BME280;33473;51.640;5.892;2022-09-17T03:00:04;101200;;;16.0;53.0
47710;BME280;33473;51.640;5.892;2022-09-17T03:13:24;101200;;;16.0;53.0
47710;BME280;33473;51.640;5.892;2022-09-17T03:26:44;101200;;;15.9;53.0
47710;BME280;33473;51.640;5.892;2022-09-17T03:40:04;101200;;;15.7;54.0
47710;BME280;33473;51.640;5.892;2022-09-17T03:53:24;101200;;;15.7;53.0
47710;BME280;33473;51.640;5.892;2022-09-17T04:06:44;101200;;;15.9;53.0
47710;BME280;33473;51.640;5.892;2022-09-17T04:20:03;101200;;;16.0;53.0
47710;BME280;33473;51.640;5.892;2022-09-17T04:33:23;101200;;;16.0;52.0
47710;BME280;33473;51.640;5.892;2022-09-17T04:46:43;101200;;;15.9;52.0
47710;BME280;33473;51.640;5.892;2022-09-17T05:00:03;101300;;;15.9;52.0
47710;BME280;33473;51.640;5.892;2022-09-17T05:13:22;101300;;;15.9;51.0
47710;BME280;33473;51.640;5.892;2022-09-17T05:26:42;101300;;;15.7;51.0
47710;BME280;33473;51.640;5.892;2022-09-17T05:40:02;101300;;;15.9;52.0
47710;BME280;33473;51.640;5.892;2022-09-17T05:53:22;101300;;;15.8;52.0
47710;BME280;33473;51.640;5.892;2022-09-17T06:06:42;101300;;;16.0;53.0
47710;BME280;33473;51.640;5.892;2022-09-17T06:20:01;101300;;;16.2;52.0
47710;BME280;33473;51.640;5.892;2022-09-17T06:33:21;101300;;;16.5;51.0
47710;BME280;33473;51.640;5.892;2022-09-17T06:46:41;101300;;;16.9;51.0
47710;BME280;33473;51.640;5.892;2022-09-17T07:00:01;101300;;;17.0;50.0
47710;BME280;33473;51.640;5.892;2022-09-17T07:13:21;101300;;;17.4;49.0
47710;BME280;33473;51.640;5.892;2022-09-17T07:26:40;101300;;;17.5;49.0
47710;BME280;33473;51.640;5.892;2022-09-17T07:40:00;101300;;;18.0;49.0
47710;BME280;33473;51.640;5.892;2022-09-17T07:53:20;101300;;;18.3;46.0
47710;BME280;33473;51.640;5.892;2022-09-17T08:06:42;101300;;;18.7;45.0
47710;BME280;33473;51.640;5.892;2022-09-17T08:20:02;101300;;;18.9;44.0
47710;BME280;33473;51.640;5.892;2022-09-17T08:33:22;101300;;;19.3;43.0
47710;BME280;33473;51.640;5.892;2022-09-17T08:46:42;101300;;;19.7;41.0
47710;BME280;33473;51.640;5.892;2022-09-17T09:00:02;101300;;;20.1;42.0
47710;BME280;33473;51.640;5.892;2022-09-17T09:13:24;101300;;;20.4;41.0
47710;BME280;33473;51.640;5.892;2022-09-17T09:26:44;101300;;;20.9;41.0
47710;BME280;33473;51.640;5.892;2022-09-17T09:40:04;101300;;;20.9;38.0
47710;BME280;33473;51.640;5.892;2022-09-17T09:53:23;101400;;;20.7;40.0
47710;BME280;33473;51.640;5.892;2022-09-17T10:06:43;101400;;;18.3;45.0
47710;BME280;33473;51.640;5.892;2022-09-17T10:20:03;101400;;;17.9;51.0
47710;BME280;33473;51.640;5.892;2022-09-17T10:33:23;101400;;;18.6;54.0
47710;BME280;33473;51.640;5.892;2022-09-17T10:46:43;101300;;;19.1;52.0
47710;BME280;33473;51.640;5.892;2022-09-17T11:00:03;101300;;;19.5;47.0
47710;BME280;33473;51.640;5.892;2022-09-17T11:13:22;101300;;;19.5;43.0
47710;BME280;33473;51.640;5.892;2022-09-17T11:26:42;101300;;;19.1;44.0
47710;BME280;33473;51.640;5.892;2022-09-17T11:40:02;101300;;;19.6;43.0
47710;BME280;33473;51.640;5.892;2022-09-17T11:53:22;101300;;;19.9;46.0
47710;BME280;33473;51.640;5.892;2022-09-17T12:06:44;101300;;;20.7;44.0
47710;BME280;33473;51.640;5.892;2022-09-17T12:20:04;101300;;;21.2;42.0
47710;BME280;33473;51.640;5.892;2022-09-17T12:33:24;101300;;;21.5;39.0
47710;BME280;33473;51.640;5.892;2022-09-17T12:46:44;101300;;;19.2;42.0
47710;BME280;33473;51.640;5.892;2022-09-17T13:00:04;101300;;;19.1;42.0
47710;BME280;33473;51.640;5.892;2022-09-17T13:13:26;101300;;;19.1;42.0
47710;BME280;33473;51.640;5.892;2022-09-17T13:26:46;101300;;;19.6;41.0
47710;BME280;33473;51.640;5.892;2022-09-17T13:40:05;101300;;;19.8;42.0
47710;BME280;33473;51.640;5.892;2022-09-17T13:53:25;101300;;;20.4;39.0
47710;BME280;33473;51.640;5.892;2022-09-17T14:06:45;101300;;;20.1;39.0
47710;BME280;33473;51.640;5.892;2022-09-17T14:20:07;101300;;;20.2;42.0
47710;BME280;33473;51.640;5.892;2022-09-17T14:33:27;101300;;;20.3;38.0
47710;BME280;33473;51.640;5.892;2022-09-17T14:46:47;101300;;;20.4;39.0
47710;BME280;33473;51.640;5.892;2022-09-17T15:00:07;101300;;;20.3;39.0
47710;BME280;33473;51.640;5.892;2022-09-17T15:13:27;101300;;;20.1;38.0
47710;BME280;33473;51.640;5.892;2022-09-17T15:26:49;101300;;;20.4;38.0
47710;BME280;33473;51.640;5.892;2022-09-17T15:40:09;101300;;;20.0;36.0
47710;BME280;33473;51.640;5.892;2022-09-17T15:53:29;101300;;;19.9;38.0
47710;BME280;33473;51.640;5.892;2022-09-17T16:06:48;101300;;;20.0;38.0
47710;BME280;33473;51.640;5.892;2022-09-17T16:20:08;101300;;;20.0;38.0
47710;BME280;33473;51.640;5.892;2022-09-17T16:33:28;101300;;;20.0;38.0
47710;BME280;33473;51.640;5.892;2022-09-17T16:46:48;101300;;;20.1;37.0
47710;BME280;33473;51.640;5.892;2022-09-17T17:00:08;101300;;;20.0;36.0
47710;BME280;33473;51.640;5.892;2022-09-17T17:13:27;101300;;;19.9;37.0
47710;BME280;33473;51.640;5.892;2022-09-17T17:26:47;101300;;;19.7;37.0
47710;BME280;33473;51.640;5.892;2022-09-17T17:40:07;101400;;;19.3;36.0
47710;BME280;33473;51.640;5.892;2022-09-17T17:53:27;101400;;;18.8;39.0
47710;BME280;33473;51.640;5.892;2022-09-17T18:06:47;101400;;;18.5;42.0
47710;BME280;33473;51.640;5.892;2022-09-17T18:20:07;101400;;;18.2;43.0
47710;BME280;33473;51.640;5.892;2022-09-17T18:33:26;101400;;;17.9;45.0
47710;BME280;33473;51.640;5.892;2022-09-17T18:46:46;101400;;;17.6;46.0
47710;BME280;33473;51.640;5.892;2022-09-17T19:00:06;101400;;;17.5;48.0
47710;BME280;33473;51.640;5.892;2022-09-17T19:13:26;101400;;;17.3;48.0
47710;BME280;33473;51.640;5.892;2022-09-17T19:26:46;101400;;;17.3;49.0
47710;BME280;33473;51.640;5.892;2022-09-17T19:40:05;101400;;;17.3;49.0
47710;BME280;33473;51.640;5.892;2022-09-17T19:53:25;101400;;;17.3;49.0
47710;BME280;33473;51.640;5.892;2022-09-17T20:06:45;101500;;;17.2;50.0
47710;BME280;33473;51.640;5.892;2022-09-17T20:20:05;101500;;;17.2;50.0
47710;BME280;33473;51.640;5.892;2022-09-17T20:33:24;101500;;;16.9;51.0
47710;BME280;33473;51.640;5.892;2022-09-17T20:46:44;101500;;;17.0;51.0
47710;BME280;33473;51.640;5.892;2022-09-17T21:00:04;101500;;;16.9;52.0
47710;BME280;33473;51.640;5.892;2022-09-17T21:13:24;101500;;;16.9;52.0
47710;BME280;33473;51.640;5.892;2022-09-17T21:26:44;101500;;;16.8;53.0
47710;BME280;33473;51.640;5.892;2022-09-17T21:40:03;101500;;;16.9;53.0
47710;BME280;33473;51.640;5.892;2022-09-17T21:53:23;101500;;;16.9;53.0
47710;BME280;33473;51.640;5.892;2022-09-17T22:06:43;101500;;;17.0;53.0
47710;BME280;33473;51.640;5.892;2022-09-17T22:20:03;101500;;;17.2;53.0
47710;BME280;33473;51.640;5.892;2022-09-17T23:40:02;101400;;;17.3;54.0
47710;BME280;33473;51.640;5.892;2022-09-17T23:53:24;101400;;;17.2;54.0
